createdAt,value
2023-03-05T00:01:33.582Z,9.13
2023-03-05T00:04:03.132Z,9.55
2023-03-05T00:06:32.118Z,10.15
2023-03-05T00:08:59.647Z,9.77
2023-03-05T00:11:30.313Z,10.90
2023-03-05T00:13:58.877Z,9.57
2023-03-05T00:16:27.112Z,10.48
2023-03-05T00:18:55.918Z,9.95
2023-03-05T00:21:22.635Z,10.55
2023-03-05T00:23:50.926Z,9.85
2023-03-05T00:26:20.623Z,10.52
2023-03-05T00:28:51.885Z,9.65
2023-03-05T00:31:22.594Z,10.02
2023-03-05T00:33:55.381Z,10.20
2023-03-05T00:36:22.764Z,10.52
2023-03-05T00:38:49.541Z,10.57
2023-03-05T00:41:17.388Z,9.70
2023-03-05T00:43:45.644Z,8.45
2023-03-05T00:46:12.614Z,9.30
2023-03-05T00:48:39.708Z,10.25
2023-03-05T00:51:06.947Z,8.98
2023-03-05T00:53:33.796Z,8.80
2023-03-05T00:56:00.644Z,8.95
2023-03-05T00:58:27.545Z,8.48
2023-03-05T01:00:59.648Z,10.05
2023-03-05T01:03:26.807Z,9.70
2023-03-05T01:05:53.636Z,9.70
2023-03-05T01:08:20.876Z,9.63
2023-03-05T01:10:48.018Z,10.15
2023-03-05T01:13:15.087Z,9.40
2023-03-05T01:15:42.330Z,10.45
2023-03-05T01:18:09.488Z,9.98
2023-03-05T01:20:36.942Z,9.73
2023-03-05T01:23:03.994Z,9.55
2023-03-05T01:25:30.778Z,9.80
2023-03-05T01:27:57.746Z,9.73
2023-03-05T01:30:24.857Z,10.68
2023-03-05T01:32:51.655Z,9.40
2023-03-05T01:35:23.068Z,9.95
2023-03-05T01:37:50.577Z,9.82
2023-03-05T01:40:29.868Z,10.35
2023-03-05T01:43:24.003Z,10.52
2023-03-05T01:46:31.153Z,9.98
2023-03-05T01:49:18.899Z,9.75
2023-03-05T01:51:58.404Z,10.35
2023-03-05T01:54:58.868Z,9.80
2023-03-05T01:57:32.696Z,10.13
2023-03-05T02:00:14.636Z,10.68
2023-03-05T02:02:50.218Z,10.38
2023-03-05T02:05:27.216Z,10.55
2023-03-05T02:07:59.819Z,10.18
2023-03-05T02:10:33.854Z,10.32
2023-03-05T02:13:10.358Z,8.83
2023-03-05T02:15:39.108Z,9.25
2023-03-05T02:18:08.513Z,9.98
2023-03-05T02:20:51.959Z,9.60
2023-03-05T02:23:22.790Z,9.85
2023-03-05T02:25:50.113Z,10.02
2023-03-05T02:28:45.755Z,9.65
2023-03-05T02:33:48.044Z,10.70
2023-03-05T02:36:15.332Z,10.23
2023-03-05T02:38:43.678Z,10.27
2023-03-05T02:41:11.612Z,11.68
2023-03-05T02:43:38.516Z,10.90
2023-03-05T02:46:06.127Z,10.40
2023-03-05T02:48:33.233Z,10.23
2023-03-05T02:51:01.926Z,11.30
2023-03-05T02:53:28.755Z,10.15
2023-03-05T02:55:55.583Z,9.90
2023-03-05T02:58:22.408Z,10.27
2023-03-05T03:00:49.575Z,11.23
2023-03-05T03:03:16.550Z,10.77
2023-03-05T03:05:43.477Z,12.05
2023-03-05T03:08:10.781Z,10.70
2023-03-05T03:13:04.805Z,10.45
2023-03-05T03:15:32.027Z,11.07
2023-03-05T03:17:58.939Z,10.90
2023-03-05T03:20:26.124Z,10.07
2023-03-05T03:22:53.707Z,10.38
2023-03-05T03:25:23.194Z,10.45
2023-03-05T03:27:50.180Z,9.70
2023-03-05T03:30:17.721Z,10.82
2023-03-05T03:32:44.976Z,10.45
2023-03-05T03:35:12.757Z,11.85
2023-03-05T03:37:39.883Z,10.50
2023-03-05T03:40:07.943Z,11.38
2023-03-05T03:42:34.787Z,12.88
2023-03-05T03:45:02.616Z,11.13
2023-03-05T03:47:31.016Z,10.70
2023-03-05T03:49:59.133Z,10.57
2023-03-05T03:52:26.736Z,11.50
2023-03-05T03:54:55.890Z,10.55
2023-03-05T03:57:22.844Z,10.65
2023-03-05T03:59:50.534Z,11.98
2023-03-05T04:02:17.960Z,10.77
2023-03-05T04:04:44.784Z,11.43
2023-03-05T04:07:11.801Z,10.32
2023-03-05T04:09:38.906Z,11.77
2023-03-05T04:12:06.407Z,10.10
2023-03-05T04:14:33.299Z,11.50
2023-03-05T04:17:00.313Z,10.65
2023-03-05T04:19:28.742Z,11.13
2023-03-05T04:21:55.582Z,8.95
2023-03-05T04:24:22.438Z,9.80
2023-03-05T04:26:49.546Z,9.40
2023-03-05T04:29:16.394Z,9.90
2023-03-05T04:31:43.280Z,9.60
2023-03-05T04:34:10.253Z,9.75
2023-03-05T04:36:37.266Z,9.50
2023-03-05T04:39:05.007Z,11.48
2023-03-05T04:41:31.965Z,11.88
2023-03-05T04:43:58.761Z,12.05
2023-03-05T04:46:26.120Z,12.25
2023-03-05T04:48:55.049Z,11.15
2023-03-05T04:51:22.239Z,10.63
2023-03-05T04:53:49.317Z,10.73
2023-03-05T04:56:16.435Z,10.30
2023-03-05T04:58:43.417Z,11.88
2023-03-05T05:01:10.764Z,10.23
2023-03-05T05:03:38.341Z,11.98
2023-03-05T05:06:05.535Z,10.75
2023-03-05T05:08:32.549Z,10.38
2023-03-05T05:11:06.666Z,10.65
2023-03-05T05:13:34.380Z,6.90
2023-03-05T05:16:01.353Z,7.63
2023-03-05T05:18:28.334Z,7.72
2023-03-05T05:20:55.137Z,7.40
2023-03-05T05:23:22.329Z,6.93
2023-03-05T05:26:04.286Z,6.20
2023-03-05T05:28:31.561Z,6.25
2023-03-05T05:30:58.828Z,6.05
2023-03-05T05:33:26.629Z,5.70
2023-03-05T05:35:53.657Z,6.57
2023-03-05T05:38:20.513Z,5.90
2023-03-05T05:40:47.321Z,5.50
2023-03-05T05:43:14.501Z,6.80
2023-03-05T05:45:41.551Z,6.95
2023-03-05T05:48:08.883Z,6.45
2023-03-05T05:50:35.696Z,7.80
2023-03-05T05:53:02.485Z,7.03
2023-03-05T05:55:29.305Z,7.57
2023-03-05T05:57:59.128Z,6.93
2023-03-05T06:00:26.270Z,7.22
2023-03-05T06:02:53.098Z,6.20
2023-03-05T06:05:20.006Z,6.20
2023-03-05T06:07:47.502Z,6.30
2023-03-05T06:10:14.593Z,6.80
2023-03-05T06:12:41.492Z,6.35
2023-03-05T06:15:09.137Z,6.05
2023-03-05T06:17:36.010Z,6.45
2023-03-05T06:20:04.647Z,6.03
2023-03-05T06:22:31.772Z,6.97
2023-03-05T06:24:58.573Z,6.70
2023-03-05T06:27:25.394Z,6.00
2023-03-05T06:29:54.423Z,6.63
2023-03-05T06:32:21.302Z,6.80
2023-03-05T06:34:48.579Z,6.53
2023-03-05T06:37:15.365Z,6.43
2023-03-05T06:39:42.296Z,7.10
2023-03-05T06:42:10.296Z,6.82
2023-03-05T06:44:41.368Z,6.60
2023-03-05T06:47:10.664Z,6.88
2023-03-05T06:49:38.946Z,6.72
2023-03-05T06:52:07.535Z,7.18
2023-03-05T06:54:34.842Z,6.75
2023-03-05T06:57:02.111Z,7.30
2023-03-05T06:59:29.357Z,6.75
2023-03-05T07:01:56.496Z,6.93
2023-03-05T07:04:24.524Z,6.20
2023-03-05T07:06:51.410Z,6.60
2023-03-05T07:09:18.329Z,6.28
2023-03-05T07:11:45.337Z,7.50
2023-03-05T07:14:12.501Z,6.75
2023-03-05T07:16:39.375Z,6.38
2023-03-05T07:19:07.683Z,6.22
2023-03-05T07:21:38.238Z,6.57
2023-03-05T07:24:06.832Z,6.47
2023-03-05T07:26:34.171Z,6.88
2023-03-05T07:29:02.266Z,6.68
2023-03-05T07:31:32.198Z,6.60
2023-03-05T07:34:01.709Z,6.55
2023-03-05T07:36:29.186Z,7.07
2023-03-05T07:38:56.595Z,6.15
2023-03-05T07:41:24.148Z,6.93
2023-03-05T07:43:54.101Z,6.40
2023-03-05T07:46:26.757Z,6.45
2023-03-05T07:48:57.348Z,6.63
2023-03-05T07:51:26.293Z,6.40
2023-03-05T07:53:55.801Z,5.93
2023-03-05T07:56:32.891Z,6.30
2023-03-05T07:59:01.742Z,6.32
2023-03-05T08:01:30.624Z,6.53
2023-03-05T08:03:58.037Z,6.72
2023-03-05T08:06:25.134Z,6.47
2023-03-05T08:08:51.998Z,6.70
2023-03-05T08:11:18.976Z,6.65
2023-03-05T08:13:46.343Z,7.25
2023-03-05T08:16:21.836Z,7.30
2023-03-05T08:18:49.173Z,7.20
2023-03-05T08:21:23.005Z,7.05
2023-03-05T08:23:50.316Z,7.70
2023-03-05T08:26:23.498Z,7.20
2023-03-05T08:28:51.132Z,8.23
2023-03-05T08:31:22.585Z,7.03
2023-03-05T08:33:52.506Z,7.40
2023-03-05T08:36:19.641Z,7.60
2023-03-05T08:38:48.605Z,7.30
2023-03-05T08:41:18.049Z,7.38
2023-03-05T08:43:44.960Z,7.80
2023-03-05T08:46:15.056Z,8.10
2023-03-05T08:48:42.719Z,7.20
2023-03-05T08:51:21.987Z,7.22
2023-03-05T08:53:48.860Z,7.15
2023-03-05T08:56:16.283Z,6.80
2023-03-05T08:58:43.361Z,7.05
2023-03-05T09:01:10.722Z,7.13
2023-03-05T09:03:37.768Z,6.93
2023-03-05T09:06:09.052Z,7.18
2023-03-05T09:08:36.695Z,6.07
2023-03-05T09:11:09.678Z,6.55
2023-03-05T09:13:36.950Z,5.93
2023-03-05T09:16:10.244Z,5.95
2023-03-05T09:18:37.679Z,5.85
2023-03-05T09:21:11.025Z,5.63
2023-03-05T09:23:38.117Z,6.03
2023-03-05T09:26:07.851Z,5.57
2023-03-05T09:28:34.964Z,5.22
2023-03-05T09:31:07.896Z,5.75
2023-03-05T09:33:36.385Z,5.20
2023-03-05T09:36:05.416Z,5.18
2023-03-05T09:38:32.937Z,5.35
2023-03-05T09:41:08.050Z,5.25
2023-03-05T09:44:12.520Z,5.32
2023-03-05T09:46:55.750Z,5.30
2023-03-05T09:49:57.222Z,5.85
2023-03-05T09:52:43.357Z,5.90
2023-03-05T09:55:23.564Z,5.78
2023-03-05T09:57:55.491Z,5.22
2023-03-05T10:00:51.326Z,4.30
2023-03-05T10:03:27.459Z,4.22
2023-03-05T10:06:07.505Z,4.22
2023-03-05T10:09:11.959Z,3.85
2023-03-05T10:12:01.568Z,3.72
2023-03-05T10:14:32.587Z,3.97
2023-03-05T10:17:24.229Z,4.20
2023-03-05T10:20:19.998Z,3.85
2023-03-05T10:23:08.352Z,4.15
2023-03-05T10:25:55.068Z,3.80
2023-03-05T10:28:55.658Z,3.30
2023-03-05T10:31:28.547Z,3.38
2023-03-05T10:34:33.921Z,3.40
2023-03-05T10:37:40.804Z,3.33
2023-03-05T10:40:44.958Z,3.28
2023-03-05T10:44:01.844Z,3.38
2023-03-05T10:46:38.533Z,3.92
2023-03-05T10:49:38.456Z,4.10
2023-03-05T10:52:18.170Z,3.78
2023-03-05T10:54:45.386Z,3.67
2023-03-05T10:57:12.514Z,3.10
2023-03-05T10:59:50.638Z,3.47
2023-03-05T11:02:19.661Z,3.55
2023-03-05T11:04:49.718Z,3.50
2023-03-05T11:07:16.437Z,3.40
2023-03-05T11:10:02.683Z,3.10
2023-03-05T11:12:37.857Z,3.30
2023-03-05T11:15:05.147Z,3.17
2023-03-05T11:17:45.575Z,3.10
2023-03-05T11:20:27.626Z,3.50
2023-03-05T11:23:23.736Z,3.90
2023-03-05T11:26:08.124Z,3.47
2023-03-05T11:28:55.571Z,3.47
2023-03-05T11:31:33.220Z,3.95
2023-03-05T11:34:17.153Z,3.80
2023-03-05T11:36:51.270Z,3.30
2023-03-05T11:39:22.846Z,3.27
2023-03-05T11:41:59.917Z,3.00
2023-03-05T11:44:38.340Z,2.40
2023-03-05T11:47:32.196Z,2.35
2023-03-05T11:50:32.247Z,2.60
2023-03-05T11:53:22.312Z,2.50
2023-03-05T11:55:55.080Z,3.10
2023-03-05T11:58:26.888Z,2.90
2023-03-05T12:00:54.169Z,2.88
2023-03-05T12:03:26.574Z,4.13
2023-03-05T12:06:18.067Z,2.63
2023-03-05T12:08:49.838Z,3.20
2023-03-05T12:11:26.559Z,3.38
2023-03-05T12:14:15.008Z,3.40
2023-03-05T12:16:52.987Z,3.53
2023-03-05T12:19:50.570Z,3.60
2023-03-05T12:22:35.036Z,3.50
2023-03-05T12:25:53.450Z,3.17
2023-03-05T12:28:29.370Z,3.53
2023-03-05T12:31:28.350Z,5.15
2023-03-05T12:33:55.236Z,4.90
2023-03-05T12:36:21.984Z,3.85
2023-03-05T12:38:57.593Z,3.75
2023-03-05T12:41:25.900Z,3.60
2023-03-05T12:44:06.448Z,3.40
2023-03-05T12:46:35.927Z,3.33
2023-03-05T12:49:18.191Z,3.50
2023-03-05T12:51:48.264Z,4.15
2023-03-05T12:54:31.941Z,3.67
2023-03-05T12:57:13.620Z,3.85
2023-03-05T13:00:11.338Z,3.65
2023-03-05T13:02:43.531Z,3.28
2023-03-05T13:05:35.247Z,3.33
2023-03-05T13:08:23.203Z,3.08
2023-03-05T13:11:07.169Z,2.70
2023-03-05T13:13:39.116Z,2.63
2023-03-05T13:16:07.274Z,2.88
2023-03-05T13:18:34.750Z,2.95
2023-03-05T13:21:17.749Z,2.65
2023-03-05T13:23:58.307Z,2.85
2023-03-05T13:26:27.002Z,2.45
2023-03-05T13:29:17.593Z,2.00
2023-03-05T13:31:55.704Z,1.48
2023-03-05T13:34:47.277Z,1.83
2023-03-05T13:37:21.994Z,2.58
2023-03-05T13:40:02.084Z,4.38
2023-03-05T13:42:32.873Z,3.42
2023-03-05T13:45:03.412Z,2.33
2023-03-05T13:47:34.204Z,2.83
2023-03-05T13:50:08.110Z,3.80
2023-03-05T13:52:38.308Z,3.55
2023-03-05T13:55:14.718Z,2.80
2023-03-05T13:57:50.778Z,2.90
2023-03-05T14:00:26.901Z,3.33
2023-03-05T14:02:59.531Z,2.45
2023-03-05T14:05:27.888Z,2.55
2023-03-05T14:07:56.892Z,2.17
2023-03-05T14:10:38.478Z,2.17
2023-03-05T14:13:14.626Z,2.53
2023-03-05T14:15:41.521Z,2.25
2023-03-05T14:18:11.305Z,3.33
2023-03-05T14:20:41.557Z,2.67
2023-03-05T14:23:31.300Z,2.20
2023-03-05T14:26:28.748Z,2.70
2023-03-05T14:29:13.306Z,1.73
2023-03-05T14:31:49.349Z,3.28
2023-03-05T14:34:36.048Z,3.28
2023-03-05T14:37:21.868Z,3.35
2023-03-05T14:40:05.694Z,2.67
2023-03-05T14:42:39.166Z,2.17
2023-03-05T14:45:17.406Z,2.35
2023-03-05T14:47:44.756Z,1.92
2023-03-05T14:50:19.712Z,2.40
2023-03-05T14:55:21.643Z,2.60
2023-03-05T14:57:52.423Z,2.70
2023-03-05T15:00:23.775Z,2.55
2023-03-05T15:02:54.355Z,2.53
2023-03-05T15:05:23.290Z,2.75
2023-03-05T15:07:51.648Z,2.40
2023-03-05T15:10:23.317Z,1.80
2023-03-05T15:12:51.437Z,2.17
2023-03-05T15:15:20.378Z,2.35
2023-03-05T15:17:51.877Z,2.60
2023-03-05T15:20:23.873Z,2.38
2023-03-05T15:22:50.973Z,2.78
2023-03-05T15:25:20.334Z,2.10
2023-03-05T15:27:48.193Z,2.67
2023-03-05T15:30:29.771Z,2.08
2023-03-05T15:33:00.629Z,2.05
2023-03-05T15:35:27.962Z,2.78
2023-03-05T15:37:56.878Z,2.17
2023-03-05T15:40:24.407Z,2.60
2023-03-05T15:42:52.052Z,1.98
2023-03-05T15:45:18.930Z,2.30
2023-03-05T15:47:48.142Z,3.00
2023-03-05T15:50:14.972Z,3.30
2023-03-05T15:52:41.792Z,3.38
2023-03-05T15:55:09.693Z,3.17
2023-03-05T15:57:39.324Z,3.42
2023-03-05T16:00:07.822Z,2.92
2023-03-05T16:02:34.998Z,2.85
2023-03-05T16:05:02.232Z,2.80
2023-03-05T16:07:30.907Z,3.20
2023-03-05T16:10:00.365Z,2.20
2023-03-05T16:12:38.107Z,2.78
2023-03-05T16:15:06.727Z,2.88
2023-03-05T16:17:35.075Z,2.33
2023-03-05T16:20:02.207Z,1.90
2023-03-05T16:22:29.401Z,1.90
2023-03-05T16:24:57.074Z,1.67
2023-03-05T16:27:24.107Z,1.48
2023-03-05T16:29:51.318Z,1.40
2023-03-05T16:32:18.235Z,1.30
2023-03-05T16:34:45.394Z,1.13
2023-03-05T16:37:23.010Z,1.52
2023-03-05T16:39:50.473Z,1.02
2023-03-05T16:42:17.703Z,0.90
2023-03-05T16:44:45.524Z,0.70
2023-03-05T16:47:13.055Z,0.80
2023-03-05T16:49:40.579Z,0.90
2023-03-05T16:52:18.268Z,0.95
2023-03-05T16:54:45.996Z,1.00
2023-03-05T16:57:13.062Z,1.20
2023-03-05T16:59:40.037Z,1.42
2023-03-05T17:02:08.174Z,1.58
2023-03-05T17:04:35.687Z,1.30
2023-03-05T17:07:05.225Z,1.20
2023-03-05T17:09:33.872Z,1.88
2023-03-05T17:12:01.931Z,4.68
2023-03-05T17:14:29.447Z,5.65
2023-03-05T17:16:57.325Z,9.73
2023-03-05T17:19:24.992Z,12.50
2023-03-05T17:21:52.703Z,8.00
2023-03-05T17:24:22.362Z,8.85
2023-03-05T17:26:50.220Z,7.60
2023-03-05T17:29:19.283Z,5.43
2023-03-05T17:31:46.978Z,4.13
2023-03-05T17:34:15.709Z,2.60
2023-03-05T17:36:45.410Z,2.08
2023-03-05T17:39:13.257Z,2.10
2023-03-05T17:41:40.122Z,1.70
2023-03-05T17:44:07.469Z,1.48
2023-03-05T17:46:34.322Z,1.70
2023-03-05T17:49:01.217Z,1.30
2023-03-05T17:51:28.154Z,1.35
2023-03-05T17:53:55.041Z,1.40
2023-03-05T17:56:22.317Z,1.30
2023-03-05T17:58:50.276Z,1.42
2023-03-05T18:01:29.712Z,1.63
2023-03-05T18:03:57.861Z,1.52
2023-03-05T18:06:27.095Z,1.30
2023-03-05T18:08:55.757Z,1.40
2023-03-05T18:11:24.333Z,4.47
2023-03-05T18:13:53.301Z,6.47
2023-03-05T18:16:22.468Z,7.90
2023-03-05T18:18:50.353Z,5.75
2023-03-05T18:21:23.905Z,6.20
2023-03-05T18:23:53.330Z,13.30
2023-03-05T18:26:20.509Z,16.60
2023-03-05T18:28:47.700Z,9.55
2023-03-05T18:31:14.605Z,9.20
2023-03-05T18:33:43.487Z,10.60
2023-03-05T18:36:11.932Z,8.77
2023-03-05T18:38:38.809Z,7.70
2023-03-05T18:41:06.570Z,6.18
2023-03-05T18:43:33.672Z,4.78
2023-03-05T18:46:05.065Z,6.07
2023-03-05T18:48:31.979Z,4.93
2023-03-05T18:50:58.867Z,6.70
2023-03-05T18:53:25.943Z,4.32
2023-03-05T18:55:53.518Z,3.80
2023-03-05T18:58:20.477Z,3.50
2023-03-05T19:00:48.324Z,3.25
2023-03-05T19:03:16.595Z,3.25
2023-03-05T19:05:43.888Z,3.35
2023-03-05T19:08:11.502Z,3.13
2023-03-05T19:10:39.208Z,3.50
2023-03-05T19:13:30.099Z,3.33
2023-03-05T19:15:56.944Z,4.50
2023-03-05T19:18:25.842Z,8.15
2023-03-05T19:20:56.295Z,13.27
2023-03-05T19:23:24.233Z,10.77
2023-03-05T19:25:51.071Z,8.57
2023-03-05T19:28:18.012Z,6.97
2023-03-05T19:30:46.467Z,6.68
2023-03-05T19:33:13.682Z,6.45
2023-03-05T19:35:42.293Z,5.90
2023-03-05T19:38:09.725Z,5.40
2023-03-05T19:40:36.714Z,4.82
2023-03-05T19:43:05.736Z,4.63
2023-03-05T19:45:34.546Z,4.63
2023-03-05T19:48:02.558Z,4.82
2023-03-05T19:50:29.471Z,4.47
2023-03-05T19:52:56.442Z,4.75
2023-03-05T19:55:23.274Z,5.30
2023-03-05T19:57:50.153Z,5.03
2023-03-05T20:00:18.014Z,6.43
2023-03-05T20:02:48.660Z,6.07
2023-03-05T20:05:15.749Z,5.80
2023-03-05T20:07:42.683Z,5.53
2023-03-05T20:10:10.919Z,5.47
2023-03-05T20:12:39.339Z,7.50
2023-03-05T20:15:07.015Z,6.35
2023-03-05T20:17:34.187Z,6.72
2023-03-05T20:20:02.356Z,6.47
2023-03-05T20:22:29.880Z,7.80
2023-03-05T20:24:58.367Z,6.55
2023-03-05T20:27:25.343Z,7.47
2023-03-05T20:29:52.589Z,8.02
2023-03-05T20:32:19.765Z,7.40
2023-03-05T20:34:46.730Z,6.90
2023-03-05T20:37:13.849Z,7.47
2023-03-05T20:39:40.660Z,6.38
2023-03-05T20:42:07.486Z,9.93
2023-03-05T20:44:34.306Z,12.73
2023-03-05T20:47:12.776Z,15.13
2023-03-05T20:49:40.139Z,11.60
2023-03-05T20:52:06.956Z,8.88
2023-03-05T20:54:33.930Z,7.43
2023-03-05T20:57:00.799Z,7.32
2023-03-05T20:59:27.634Z,6.63
2023-03-05T21:01:54.462Z,6.10
2023-03-05T21:04:21.309Z,5.97
2023-03-05T21:06:53.317Z,5.60
2023-03-05T21:09:20.425Z,6.03
2023-03-05T21:11:47.279Z,7.10
2023-03-05T21:14:14.204Z,7.15
2023-03-05T21:16:41.119Z,6.70
2023-03-05T21:19:07.959Z,8.07
2023-03-05T21:21:34.843Z,7.22
2023-03-05T21:24:02.034Z,7.72
2023-03-05T21:26:29.913Z,7.00
2023-03-05T21:28:58.458Z,6.47
2023-03-05T21:31:26.371Z,7.00
2023-03-05T21:33:54.577Z,5.95
2023-03-05T21:36:22.369Z,6.13
2023-03-05T21:38:50.159Z,6.13
2023-03-05T21:41:18.375Z,6.32
2023-03-05T21:43:45.701Z,7.20
2023-03-05T21:46:12.987Z,6.05
2023-03-05T21:48:40.126Z,6.55
2023-03-05T21:51:09.210Z,7.03
2023-03-05T21:53:36.673Z,6.65
2023-03-05T21:56:18.470Z,7.10
2023-03-05T21:58:47.614Z,6.80
2023-03-05T22:01:18.584Z,6.93
2023-03-05T22:03:46.302Z,6.45
2023-03-05T22:06:16.387Z,8.57
2023-03-05T22:08:43.378Z,8.57
2023-03-05T22:11:15.812Z,6.45
2023-03-05T22:13:43.218Z,6.60
2023-03-05T22:16:10.568Z,5.93
2023-03-05T22:18:37.549Z,6.45
2023-03-05T22:21:05.107Z,6.35
2023-03-05T22:23:34.674Z,6.32
2023-03-05T22:26:05.820Z,8.23
2023-03-05T22:28:34.508Z,8.52
2023-03-05T22:31:01.723Z,8.73
2023-03-05T22:33:30.935Z,7.63
2023-03-05T22:35:58.511Z,6.82
2023-03-05T22:38:26.010Z,6.57
2023-03-05T22:40:53.277Z,6.43
2023-03-05T22:43:20.893Z,7.32
2023-03-05T22:45:48.004Z,6.25
2023-03-05T22:48:15.423Z,6.40
2023-03-05T22:50:44.418Z,6.15
2023-03-05T22:53:12.508Z,8.23
2023-03-05T22:55:42.989Z,7.45
2023-03-05T22:58:10.289Z,8.07
2023-03-05T23:00:37.807Z,8.45
2023-03-05T23:03:06.530Z,7.13
2023-03-05T23:05:35.002Z,7.45
2023-03-05T23:08:02.252Z,6.22
2023-03-05T23:10:29.593Z,6.65
2023-03-05T23:12:59.357Z,7.03
2023-03-05T23:15:31.545Z,6.20
2023-03-05T23:17:58.613Z,5.50
2023-03-05T23:20:29.944Z,6.80
2023-03-05T23:22:58.144Z,5.80
2023-03-05T23:25:29.173Z,7.03
2023-03-05T23:28:00.135Z,6.55
2023-03-05T23:30:29.740Z,5.95
2023-03-05T23:33:02.394Z,6.07
2023-03-05T23:35:36.975Z,6.60
2023-03-05T23:38:16.789Z,5.65
2023-03-05T23:40:50.574Z,6.43
2023-03-05T23:43:18.709Z,6.10
2023-03-05T23:45:51.217Z,6.00
2023-03-05T23:48:18.475Z,6.72
2023-03-05T23:50:48.493Z,6.22
2023-03-05T23:53:25.906Z,5.40
2023-03-05T23:55:53.730Z,6.35
2023-03-05T23:58:20.711Z,6.10
